createdAt,value
2022-10-19T00:12:32.768Z,3.20
2022-10-19T00:27:37.782Z,3.37
2022-10-19T00:42:42.219Z,3.50
2022-10-19T00:57:46.973Z,3.13
2022-10-19T01:13:12.475Z,2.97
2022-10-19T01:28:40.144Z,2.70
2022-10-19T01:43:49.756Z,2.70
2022-10-19T01:58:57.611Z,2.60
2022-10-19T02:14:08.651Z,2.30
2022-10-19T02:29:16.177Z,2.27
2022-10-19T02:44:23.890Z,2.57
2022-10-19T02:59:28.711Z,2.67
2022-10-19T03:14:33.039Z,2.43
2022-10-19T03:29:37.857Z,1.83
2022-10-19T03:44:42.199Z,2.20
2022-10-19T03:59:46.542Z,2.70
2022-10-19T04:14:57.374Z,2.60
2022-10-19T04:30:02.124Z,3.47
2022-10-19T04:45:07.131Z,3.50
2022-10-19T05:00:12.943Z,3.40
2022-10-19T05:15:17.323Z,3.43
2022-10-19T05:30:22.638Z,3.40
2022-10-19T05:45:26.984Z,3.90
2022-10-19T06:00:31.550Z,4.77
2022-10-19T06:15:37.123Z,4.67
2022-10-19T06:30:42.379Z,5.63
2022-10-19T06:45:46.815Z,5.00
2022-10-19T07:00:57.492Z,5.33
2022-10-19T07:16:05.701Z,4.77
2022-10-19T07:31:12.887Z,5.63
2022-10-19T07:46:19.357Z,5.83
2022-10-19T08:01:25.396Z,6.63
2022-10-19T08:16:32.715Z,5.70
2022-10-19T08:31:37.483Z,7.50
2022-10-19T08:46:50.155Z,6.63
2022-10-19T09:01:57.985Z,5.67
2022-10-19T09:17:04.663Z,6.33
2022-10-19T09:32:15.446Z,7.80
2022-10-19T09:47:33.372Z,5.67
2022-10-19T10:02:38.316Z,4.80
2022-10-19T10:17:48.073Z,4.33
2022-10-19T10:32:54.994Z,4.30
2022-10-19T10:48:15.391Z,8.00
2022-10-19T11:03:23.761Z,5.23
2022-10-19T11:18:33.652Z,4.63
2022-10-19T11:33:51.738Z,3.47
2022-10-19T11:49:16.718Z,5.97
2022-10-19T12:04:42.749Z,4.00
2022-10-19T12:19:51.392Z,5.43
2022-10-19T12:35:00.278Z,6.43
2022-10-19T12:50:05.434Z,5.27
2022-10-19T13:05:21.511Z,5.00
2022-10-19T13:20:52.230Z,6.53
2022-10-19T13:36:08.921Z,4.20
2022-10-19T13:51:22.864Z,3.77
2022-10-19T14:06:32.582Z,6.13
2022-10-19T14:21:37.781Z,3.13
2022-10-19T14:36:47.986Z,3.63
2022-10-19T14:51:55.828Z,3.00
2022-10-19T15:07:03.987Z,5.83
2022-10-19T15:22:17.755Z,3.97
2022-10-19T15:37:24.245Z,2.87
2022-10-19T15:52:29.957Z,4.10
2022-10-19T16:07:38.185Z,4.27
2022-10-19T16:22:42.798Z,4.20
2022-10-19T16:37:47.155Z,4.13
2022-10-19T16:53:05.218Z,5.50
2022-10-19T17:08:11.629Z,5.67
2022-10-19T17:23:16.205Z,13.50
2022-10-19T17:38:20.553Z,10.07
2022-10-19T17:53:25.063Z,7.40
2022-10-19T18:08:30.392Z,8.77
2022-10-19T18:23:34.950Z,12.37
2022-10-19T18:38:40.079Z,7.37
2022-10-19T18:53:45.460Z,8.10
2022-10-19T19:08:50.105Z,11.03
2022-10-19T19:23:56.132Z,15.23
2022-10-19T19:39:01.011Z,8.00
2022-10-19T19:54:05.572Z,8.67
2022-10-19T20:09:10.624Z,7.77
2022-10-19T20:24:15.123Z,7.93
2022-10-19T20:39:19.528Z,7.77
2022-10-19T20:54:23.900Z,6.87
2022-10-19T21:09:28.321Z,8.00
2022-10-19T21:24:34.638Z,5.70
2022-10-19T21:39:39.548Z,6.80
2022-10-19T21:54:43.929Z,6.23
2022-10-19T22:09:48.403Z,6.37
2022-10-19T22:24:52.829Z,5.80
2022-10-19T22:39:57.144Z,5.33
2022-10-19T22:55:01.489Z,6.50
2022-10-19T23:10:06.656Z,4.97
2022-10-19T23:25:11.299Z,5.40
2022-10-19T23:40:15.779Z,5.30
2022-10-19T23:55:20.077Z,5.20
